Time;durP1;ratioP1;P1;durP2;ratioP2;P2;SDS_P1;SDS_P2;PMS_P1;PMS_P2;Temp;Humidity;BMP_temperature;BMP_pressure;BME280_temperature;BME280_humidity;BME280_pressure;Samples;Min_cycle;Max_cycle;Signal;HPM_P1;HPM_P2
2021/12/17 00:00:43;;;;;;;21.95;13.40;;;9.40;99.90;;;;;;5088924;28;20692;-63
2021/12/17 00:03:17;;;;;;;20.77;13.77;;;9.40;99.90;;;;;;5089578;28;20571;-63
2021/12/17 00:08:39;;;;;;;20.45;11.70;;;9.30;99.90;;;;;;5074963;28;20226;-63
2021/12/17 00:11:07;;;;;;;19.83;11.75;;;9.30;99.90;;;;;;5089439;28;20227;-64
2021/12/17 00:13:37;;;;;;;19.35;13.25;;;9.30;99.90;;;;;;5088935;28;20423;-63
2021/12/17 00:16:12;;;;;;;19.45;11.55;;;9.30;99.90;;;;;;5089275;28;20223;-64
2021/12/17 00:18:52;;;;;;;17.52;10.23;;;9.40;99.90;;;;;;5088931;28;20207;-63
2021/12/17 00:48:47;;;;;;;18.35;10.60;;;9.30;99.90;;;;;;5088134;28;20697;-63
2021/12/17 00:51:48;;;;;;;18.63;11.20;;;9.30;99.90;;;;;;5084302;28;20265;-63
2021/12/17 00:54:21;;;;;;;16.48;10.70;;;9.30;99.90;;;;;;5086780;28;20224;-63
2021/12/17 00:56:48;;;;;;;15.57;9.88;;;9.30;99.90;;;;;;5086522;28;20816;-62
2021/12/17 00:59:15;;;;;;;18.13;10.15;;;9.20;99.90;;;;;;5079505;28;20753;-62
2021/12/17 01:01:42;;;;;;;15.35;10.23;;;9.30;99.90;;;;;;5073703;28;20221;-61
2021/12/17 01:04:09;;;;;;;16.45;10.18;;;9.30;99.90;;;;;;5075034;28;20230;-62
2021/12/17 01:06:37;;;;;;;23.90;11.15;;;9.40;99.90;;;;;;5074424;28;20216;-62
2021/12/17 01:09:04;;;;;;;27.17;10.23;;;9.30;99.90;;;;;;5066101;28;20309;-62
2021/12/17 01:11:33;;;;;;;17.60;10.77;;;9.30;99.90;;;;;;5073372;28;20248;-62
2021/12/17 01:14:00;;;;;;;23.27;11.18;;;9.30;99.90;;;;;;5074995;28;20694;-62
2021/12/17 01:16:28;;;;;;;28.85;21.30;;;9.30;99.90;;;;;;5074276;28;20235;-62
2021/12/17 01:19:05;;;;;;;18.55;11.57;;;9.30;99.90;;;;;;5074656;28;20234;-62
2021/12/17 01:21:41;;;;;;;12.25;8.75;;;9.30;99.90;;;;;;5074231;28;20227;-62
2021/12/17 01:24:28;;;;;;;16.38;11.07;;;9.30;99.90;;;;;;5074585;28;20247;-62
2021/12/17 01:35:23;;;;;;;22.83;9.75;;;9.30;99.90;;;;;;5065954;28;20235;-62
2021/12/17 01:43:35;;;;;;;18.90;9.55;;;9.30;99.90;;;;;;5074208;28;20413;-62
2021/12/17 01:46:03;;;;;;;20.00;9.55;;;9.30;99.90;;;;;;5073850;28;21279;-62
2021/12/17 01:48:38;;;;;;;24.40;11.35;;;9.30;99.90;;;;;;5073663;28;20228;-62
2021/12/17 01:56:52;;;;;;;19.25;10.07;;;9.30;99.90;;;;;;5073856;28;20227;-62
2021/12/17 01:59:24;;;;;;;20.77;8.90;;;9.30;99.90;;;;;;5073204;28;20567;-62
2021/12/17 02:01:58;;;;;;;15.00;7.57;;;9.20;99.90;;;;;;5073023;28;20804;-62
2021/12/17 02:04:25;;;;;;;15.80;8.18;;;9.20;99.90;;;;;;5073626;28;20231;-62
2021/12/17 02:06:52;;;;;;;18.08;12.15;;;9.20;99.90;;;;;;5073289;28;20945;-62
2021/12/17 02:10:02;;;;;;;18.35;9.50;;;9.20;99.90;;;;;;5073273;28;20715;-62
2021/12/17 02:12:57;;;;;;;20.90;10.50;;;9.20;99.90;;;;;;5072457;28;20508;-62
2021/12/17 02:21:36;;;;;;;21.80;9.90;;;9.20;99.90;;;;;;5073440;28;20230;-62
2021/12/17 02:30:02;;;;;;;16.20;7.75;;;9.10;99.90;;;;;;5073161;28;20269;-62
2021/12/17 02:32:31;;;;;;;18.60;7.28;;;9.20;99.90;;;;;;5073527;28;20559;-62
2021/12/17 02:35:19;;;;;;;16.98;8.40;;;9.10;99.90;;;;;;5072923;28;20216;-62
2021/12/17 02:37:49;;;;;;;11.55;7.38;;;9.20;99.90;;;;;;5072486;28;20288;-62
2021/12/17 02:42:26;;;;;;;17.75;10.40;;;9.20;99.90;;;;;;5072638;28;20240;-62
2021/12/17 02:45:55;;;;;;;12.18;7.70;;;9.10;99.90;;;;;;5033548;28;20221;-62
2021/12/17 02:48:24;;;;;;;18.27;7.80;;;9.10;99.90;;;;;;5072688;28;20232;-63
2021/12/17 02:50:53;;;;;;;14.00;8.32;;;9.20;99.90;;;;;;5072417;28;20224;-62
2021/12/17 02:53:23;;;;;;;17.23;8.43;;;9.20;99.90;;;;;;5072616;28;20703;-62
2021/12/17 02:55:53;;;;;;;15.77;7.47;;;9.20;99.90;;;;;;5072418;28;20224;-62
2021/12/17 02:58:23;;;;;;;13.93;8.73;;;9.20;99.90;;;;;;5059571;28;20223;-62
2021/12/17 03:00:51;;;;;;;17.77;8.00;;;9.20;99.90;;;;;;5066645;28;20216;-62
2021/12/17 03:03:20;;;;;;;18.45;9.40;;;9.20;99.90;;;;;;5072728;28;20216;-62
2021/12/17 03:05:48;;;;;;;13.15;8.52;;;9.20;99.90;;;;;;5072036;28;20311;-62
2021/12/17 03:08:16;;;;;;;17.00;8.43;;;9.20;99.90;;;;;;5072585;28;20586;-62
2021/12/17 03:10:48;;;;;;;17.20;8.18;;;9.20;99.90;;;;;;5072060;28;20248;-63
2021/12/17 03:13:15;;;;;;;22.17;9.85;;;9.20;99.90;;;;;;5072753;28;20222;-62
2021/12/17 03:15:48;;;;;;;19.40;10.20;;;9.20;99.90;;;;;;5072513;28;20232;-62
2021/12/17 03:23:45;;;;;;;16.45;6.95;;;9.10;99.90;;;;;;5072009;28;20222;-62
2021/12/17 03:26:15;;;;;;;20.75;10.70;;;9.10;99.90;;;;;;5071012;28;20239;-62
2021/12/17 03:28:43;;;;;;;19.60;9.73;;;9.10;99.90;;;;;;5071896;28;20230;-62
2021/12/17 03:31:12;;;;;;;15.50;8.15;;;9.10;99.90;;;;;;5071535;28;20311;-62
2021/12/17 03:33:42;;;;;;;15.63;7.10;;;9.10;99.90;;;;;;5072159;28;20226;-62
2021/12/17 03:36:11;;;;;;;17.73;10.02;;;9.20;99.90;;;;;;5071114;28;20235;-62
2021/12/17 03:38:38;;;;;;;14.35;7.22;;;9.20;99.90;;;;;;5071164;28;20713;-62
2021/12/17 03:41:18;;;;;;;13.95;8.93;;;9.20;99.90;;;;;;5071998;28;20234;-63
2021/12/17 03:43:50;;;;;;;11.70;8.35;;;9.20;99.90;;;;;;5072187;28;20234;-62
2021/12/17 03:46:18;;;;;;;23.30;8.55;;;9.20;99.90;;;;;;5071473;28;20231;-62
2021/12/17 03:48:45;;;;;;;15.40;7.65;;;9.10;99.90;;;;;;5071545;28;20246;-62
2021/12/17 03:51:14;;;;;;;25.10;11.88;;;9.10;99.90;;;;;;5071351;28;20631;-62
2021/12/17 03:53:42;;;;;;;14.63;9.73;;;9.10;99.90;;;;;;5071879;28;20221;-63
2021/12/17 03:56:10;;;;;;;13.98;8.20;;;9.10;99.90;;;;;;5071573;28;20315;-62
2021/12/17 03:58:36;;;;;;;15.32;8.45;;;9.20;99.90;;;;;;5072052;28;20224;-62
2021/12/17 04:01:06;;;;;;;12.68;7.35;;;9.20;99.90;;;;;;5071487;28;20225;-62
2021/12/17 04:03:33;;;;;;;17.30;8.48;;;9.20;99.90;;;;;;5071919;28;20228;-62
2021/12/17 04:06:01;;;;;;;14.65;7.38;;;9.20;99.90;;;;;;5071480;28;20231;-62
2021/12/17 04:08:28;;;;;;;15.27;8.20;;;9.20;99.90;;;;;;5071865;28;20223;-62
2021/12/17 04:11:03;;;;;;;16.83;8.52;;;9.20;99.90;;;;;;5071358;28;20226;-62
2021/12/17 04:13:33;;;;;;;17.60;9.52;;;9.20;99.90;;;;;;5071672;28;20215;-62
2021/12/17 04:16:02;;;;;;;21.35;8.82;;;9.20;99.90;;;;;;5071221;28;20228;-62
2021/12/17 04:18:32;;;;;;;16.23;8.30;;;9.20;99.90;;;;;;5071967;28;20216;-63
2021/12/17 04:21:01;;;;;;;16.35;9.95;;;9.20;99.90;;;;;;5071441;28;20670;-62
2021/12/17 04:23:28;;;;;;;16.67;8.52;;;9.20;99.90;;;;;;5071500;28;20330;-62
2021/12/17 04:25:55;;;;;;;23.25;8.88;;;9.20;99.90;;;;;;5071741;28;20230;-62
2021/12/17 04:28:22;;;;;;;11.85;8.02;;;9.30;99.90;;;;;;5071493;28;20239;-62
2021/12/17 04:30:50;;;;;;;17.20;8.18;;;9.20;99.90;;;;;;5071715;28;20682;-63
2021/12/17 04:33:18;;;;;;;19.08;7.93;;;9.20;99.90;;;;;;5071147;28;21617;-62
2021/12/17 04:35:46;;;;;;;14.80;7.80;;;9.20;99.90;;;;;;5073372;28;20225;-62
2021/12/17 04:38:15;;;;;;;18.38;8.05;;;9.20;99.90;;;;;;5074636;28;20228;-62
2021/12/17 04:40:43;;;;;;;24.77;8.25;;;9.20;99.90;;;;;;5075290;28;20224;-62
2021/12/17 04:43:20;;;;;;;14.38;7.90;;;9.20;99.90;;;;;;5074976;28;20224;-62
2021/12/17 04:45:56;;;;;;;13.00;7.55;;;9.20;99.90;;;;;;5075201;28;20542;-62
2021/12/17 04:59:24;;;;;;;18.05;8.70;;;9.20;99.90;;;;;;5075101;28;20303;-62
2021/12/17 05:01:50;;;;;;;19.38;9.13;;;9.20;99.90;;;;;;5074814;28;20518;-62
2021/12/17 05:04:19;;;;;;;16.63;7.82;;;9.20;99.90;;;;;;5075183;28;20223;-62
2021/12/17 05:06:47;;;;;;;17.00;9.18;;;9.20;99.90;;;;;;5074571;28;20594;-62
2021/12/17 05:09:25;;;;;;;10.82;7.95;;;9.20;99.90;;;;;;5074703;28;20234;-62
2021/12/17 05:20:15;;;;;;;19.77;10.10;;;9.20;99.90;;;;;;5074995;28;20311;-62
2021/12/17 05:22:44;;;;;;;14.07;9.85;;;9.20;99.90;;;;;;5074754;28;20289;-62
2021/12/17 05:25:11;;;;;;;15.27;10.90;;;9.20;99.90;;;;;;5074357;28;20224;-62
2021/12/17 05:27:37;;;;;;;20.05;9.45;;;9.10;99.90;;;;;;5074870;28;20220;-63
2021/12/17 05:30:05;;;;;;;13.23;9.30;;;9.20;99.90;;;;;;5074193;28;20238;-62
2021/12/17 05:32:32;;;;;;;16.13;9.13;;;9.20;99.90;;;;;;5074717;28;20219;-62
2021/12/17 05:34:59;;;;;;;14.55;8.90;;;9.20;99.90;;;;;;5074708;28;20250;-62
2021/12/17 05:37:26;;;;;;;19.65;9.25;;;9.10;99.90;;;;;;5073985;28;20227;-62
2021/12/17 05:39:54;;;;;;;18.25;10.13;;;9.10;99.90;;;;;;5074316;28;20220;-62
2021/12/17 05:42:22;;;;;;;20.08;8.82;;;9.10;99.90;;;;;;5074097;28;20224;-62
2021/12/17 05:44:55;;;;;;;18.35;10.90;;;9.10;99.90;;;;;;5074510;28;20321;-62
2021/12/17 05:47:22;;;;;;;19.50;10.07;;;9.10;99.90;;;;;;5073935;28;20369;-62
2021/12/17 05:49:49;;;;;;;15.75;9.35;;;9.10;99.90;;;;;;5073925;28;20223;-62
2021/12/17 05:52:16;;;;;;;21.00;9.63;;;9.10;99.90;;;;;;5073634;28;20223;-62
2021/12/17 05:54:42;;;;;;;16.95;8.38;;;9.10;99.90;;;;;;5074178;28;20563;-62
2021/12/17 05:57:11;;;;;;;11.60;8.25;;;9.10;99.90;;;;;;5073777;28;20685;-62
2021/12/17 05:59:37;;;;;;;15.27;7.75;;;9.10;99.90;;;;;;5073847;28;20408;-62
2021/12/17 06:02:10;;;;;;;16.02;10.38;;;9.00;99.90;;;;;;5073847;28;20246;-62
2021/12/17 06:04:37;;;;;;;13.20;7.93;;;9.00;99.90;;;;;;5073729;28;20277;-62
2021/12/17 06:07:04;;;;;;;16.90;7.78;;;9.00;99.90;;;;;;5073952;28;20237;-63
2021/12/17 06:09:32;;;;;;;18.50;8.43;;;9.00;99.90;;;;;;5073333;28;20230;-63
2021/12/17 06:11:58;;;;;;;20.67;7.95;;;8.90;99.90;;;;;;5073910;28;20686;-63
2021/12/17 06:14:26;;;;;;;16.40;6.47;;;8.90;99.90;;;;;;5073412;28;20246;-63
2021/12/17 06:16:53;;;;;;;18.15;8.63;;;8.90;99.90;;;;;;5074097;28;20220;-62
2021/12/17 06:19:20;;;;;;;12.98;8.40;;;8.90;99.90;;;;;;5073419;28;20227;-62
2021/12/17 06:21:48;;;;;;;16.48;8.95;;;8.80;99.90;;;;;;5073544;28;20216;-62
2021/12/17 06:24:15;;;;;;;10.88;8.15;;;8.80;99.90;;;;;;5073216;28;20316;-62
2021/12/17 06:26:42;;;;;;;29.65;10.98;;;8.80;99.90;;;;;;5073683;28;20692;-63
2021/12/17 06:29:09;;;;;;;13.93;8.35;;;8.80;99.90;;;;;;5073392;28;20231;-63
2021/12/17 06:31:37;;;;;;;14.13;8.10;;;8.80;99.90;;;;;;5073010;28;20231;-63
2021/12/17 06:34:04;;;;;;;15.45;8.05;;;8.80;99.90;;;;;;5073499;28;20735;-62
2021/12/17 06:36:30;;;;;;;13.60;8.70;;;8.80;99.90;;;;;;5072852;28;20224;-65
2021/12/17 06:38:57;;;;;;;19.50;8.65;;;8.80;99.90;;;;;;5073522;28;20222;-62
2021/12/17 06:41:24;;;;;;;12.65;8.40;;;8.80;99.90;;;;;;5072868;28;20693;-63
2021/12/17 06:43:53;;;;;;;20.92;9.10;;;8.80;99.90;;;;;;5073276;28;20230;-63
2021/12/17 06:46:25;;;;;;;12.80;7.22;;;8.80;99.90;;;;;;5073041;28;20234;-63
2021/12/17 06:49:08;;;;;;;12.65;5.80;;;8.80;99.90;;;;;;5072916;28;20231;-63
2021/12/17 06:54:48;;;;;;;13.88;7.20;;;8.80;99.90;;;;;;5072615;28;20323;-63
2021/12/17 06:58:07;;;;;;;13.27;8.35;;;8.80;99.90;;;;;;5073072;28;20228;-63
2021/12/17 07:00:50;;;;;;;14.55;6.97;;;8.80;99.90;;;;;;5072415;28;20612;-64
2021/12/17 07:06:06;;;;;;;17.00;8.77;;;8.80;99.90;;;;;;5072661;28;20246;-63
2021/12/17 07:11:34;;;;;;;13.50;8.50;;;8.80;99.90;;;;;;5072569;28;20554;-63
2021/12/17 07:22:25;;;;;;;12.30;7.13;;;8.80;99.90;;;;;;5054590;28;20220;-63
2021/12/17 07:28:05;;;;;;;18.13;8.18;;;8.70;99.90;;;;;;5072707;28;20211;-63
2021/12/17 07:33:13;;;;;;;16.63;7.45;;;8.80;99.90;;;;;;5072620;28;20284;-63
2021/12/17 07:35:49;;;;;;;16.73;8.32;;;8.80;99.90;;;;;;5072081;28;20289;-63
2021/12/17 07:41:04;;;;;;;14.73;7.45;;;8.80;99.90;;;;;;5072606;28;20247;-63
2021/12/17 07:43:37;;;;;;;12.38;6.90;;;8.80;99.90;;;;;;5072060;28;20228;-64
2021/12/17 07:46:06;;;;;;;13.40;6.88;;;8.80;99.90;;;;;;5072382;28;20224;-64
2021/12/17 07:48:33;;;;;;;12.95;8.38;;;8.80;99.90;;;;;;5071889;28;20254;-62
2021/12/17 07:51:02;;;;;;;25.48;11.88;;;8.80;99.90;;;;;;5072280;28;20228;-62
2021/12/17 07:53:31;;;;;;;12.68;7.45;;;8.80;99.90;;;;;;5071884;28;20311;-62
2021/12/17 07:56:00;;;;;;;14.80;7.75;;;8.80;99.90;;;;;;5072392;28;20246;-62
2021/12/17 07:58:27;;;;;;;14.32;7.97;;;8.80;99.90;;;;;;5071952;28;20277;-62
2021/12/17 08:00:55;;;;;;;11.15;6.65;;;8.80;99.90;;;;;;5072177;28;20655;-62
2021/12/17 08:03:22;;;;;;;8.07;5.95;;;8.80;99.90;;;;;;5071788;28;20230;-62
2021/12/17 08:05:49;;;;;;;16.00;8.95;;;8.70;99.90;;;;;;5072439;28;20235;-62
2021/12/17 08:08:16;;;;;;;13.25;8.10;;;8.70;99.90;;;;;;5071917;28;20234;-62
2021/12/17 08:10:47;;;;;;;20.25;8.63;;;8.80;99.90;;;;;;5073509;28;20953;-62
2021/12/17 08:13:19;;;;;;;13.38;7.35;;;8.80;99.90;;;;;;5076229;28;20274;-62
2021/12/17 08:15:58;;;;;;;10.85;6.75;;;8.80;99.90;;;;;;5075643;28;20322;-62
2021/12/17 08:18:42;;;;;;;17.92;7.75;;;8.80;99.90;;;;;;5075594;28;20730;-62
2021/12/17 08:24:35;;;;;;;11.77;6.45;;;8.90;99.90;;;;;;5075534;28;20223;-62
2021/12/17 08:26:57;;;;;;;11.98;6.53;;;8.90;99.90;;;;;;5075379;28;20228;-62
2021/12/17 08:29:42;;;;;;;13.13;6.30;;;8.90;99.90;;;;;;5075790;28;20318;-62
2021/12/17 08:32:10;;;;;;;11.90;6.20;;;8.90;99.90;;;;;;5075952;28;20311;-62
2021/12/17 08:34:37;;;;;;;16.90;6.70;;;8.90;99.90;;;;;;5075594;28;20216;-62
2021/12/17 08:37:06;;;;;;;10.52;6.95;;;9.00;99.90;;;;;;5075705;28;20234;-62
2021/12/17 08:39:32;;;;;;;11.77;5.55;;;9.00;99.90;;;;;;5074881;28;20231;-62
2021/12/17 08:42:01;;;;;;;10.02;6.80;;;9.00;99.90;;;;;;5075709;28;20231;-62
2021/12/17 08:44:29;;;;;;;11.40;5.75;;;9.10;99.90;;;;;;5075061;28;20236;-63
2021/12/17 08:46:56;;;;;;;7.85;5.50;;;9.10;99.90;;;;;;5075428;28;20289;-62
2021/12/17 08:49:23;;;;;;;12.55;6.40;;;9.10;99.90;;;;;;5074923;28;20228;-62
2021/12/17 08:51:50;;;;;;;11.20;5.43;;;9.10;99.90;;;;;;5075334;28;20228;-62
2021/12/17 08:54:17;;;;;;;8.68;6.55;;;9.10;99.90;;;;;;5074862;28;20220;-62
2021/12/17 08:56:47;;;;;;;11.65;6.57;;;9.20;99.90;;;;;;5075537;28;20234;-62
2021/12/17 08:59:17;;;;;;;14.50;5.80;;;9.20;99.90;;;;;;5074825;28;20307;-62
2021/12/17 09:01:44;;;;;;;11.63;6.55;;;9.20;99.90;;;;;;5075242;28;20223;-62
2021/12/17 09:04:12;;;;;;;17.88;6.50;;;9.20;99.90;;;;;;5075225;28;20382;-62
2021/12/17 09:06:39;;;;;;;12.63;6.70;;;9.20;99.90;;;;;;5074717;28;20558;-62
2021/12/17 09:09:06;;;;;;;13.43;5.88;;;9.20;99.90;;;;;;5075041;28;20227;-61
2021/12/17 09:11:33;;;;;;;23.38;7.43;;;9.20;99.90;;;;;;5074582;28;20228;-61
2021/12/17 09:14:03;;;;;;;7.93;5.40;;;9.20;99.90;;;;;;5074927;28;20323;-62
2021/12/17 09:16:31;;;;;;;10.02;6.55;;;9.20;99.90;;;;;;5074404;28;20219;-61
2021/12/17 09:18:58;;;;;;;16.27;7.90;;;9.20;99.90;;;;;;5075030;28;20228;-61
2021/12/17 09:21:25;;;;;;;15.75;5.97;;;9.20;99.90;;;;;;5074038;28;20238;-62
2021/12/17 09:23:52;;;;;;;13.32;6.50;;;9.20;99.90;;;;;;5074829;28;20558;-62
2021/12/17 09:26:22;;;;;;;13.85;7.20;;;9.20;99.90;;;;;;5074418;28;20224;-62
2021/12/17 09:28:49;;;;;;;9.18;5.32;;;9.20;99.90;;;;;;5074843;28;20295;-62
2021/12/17 09:31:16;;;;;;;12.93;6.82;;;9.20;99.90;;;;;;5074659;28;20519;-61
2021/12/17 09:33:46;;;;;;;16.83;8.02;;;9.20;99.90;;;;;;5074413;28;21057;-61
2021/12/17 09:36:14;;;;;;;17.23;7.20;;;9.20;99.90;;;;;;5074419;28;20224;-62
2021/12/17 09:38:40;;;;;;;12.38;7.50;;;9.20;99.90;;;;;;5074172;28;20224;-62
2021/12/17 09:41:08;;;;;;;13.13;5.40;;;9.20;99.90;;;;;;5074500;28;20224;-62
2021/12/17 09:43:37;;;;;;;7.70;4.97;;;9.20;99.90;;;;;;5073943;28;20224;-62
2021/12/17 09:46:06;;;;;;;20.00;6.82;;;9.20;99.90;;;;;;5074602;28;20228;-62
2021/12/17 09:48:34;;;;;;;11.90;5.40;;;9.30;99.90;;;;;;5073772;28;20242;-62
2021/12/17 09:51:04;;;;;;;10.30;4.20;;;9.30;99.90;;;;;;5074172;28;20230;-62
2021/12/17 09:53:31;;;;;;;11.15;6.43;;;9.30;99.90;;;;;;5073768;28;20228;-62
2021/12/17 09:55:58;;;;;;;12.52;7.78;;;9.30;99.90;;;;;;5074190;28;20224;-61
2021/12/17 09:58:25;;;;;;;14.82;7.72;;;9.30;99.90;;;;;;5073678;28;20228;-61
2021/12/17 10:00:51;;;;;;;10.35;5.40;;;9.30;99.90;;;;;;5074079;28;20216;-62
2021/12/17 10:03:19;;;;;;;8.95;6.10;;;9.40;99.90;;;;;;5073767;28;20250;-61
2021/12/17 10:05:46;;;;;;;13.95;5.93;;;9.40;99.90;;;;;;5073606;28;20220;-62
2021/12/17 10:08:17;;;;;;;11.57;6.05;;;9.40;99.90;;;;;;5073848;28;20228;-61
2021/12/17 10:10:45;;;;;;;10.60;4.90;;;9.40;99.90;;;;;;5073468;28;20227;-62
2021/12/17 10:13:16;;;;;;;12.48;5.90;;;9.40;99.90;;;;;;5073954;28;20575;-62
2021/12/17 10:15:46;;;;;;;11.88;5.65;;;9.40;99.90;;;;;;5073573;28;20220;-62
2021/12/17 10:18:14;;;;;;;16.20;5.75;;;9.40;99.90;;;;;;5073858;28;20240;-62
2021/12/17 10:20:56;;;;;;;7.25;4.30;;;9.40;99.90;;;;;;5073089;28;20254;-61
2021/12/17 10:23:25;;;;;;;11.82;5.13;;;9.40;99.90;;;;;;5073117;28;20220;-61
2021/12/17 10:25:52;;;;;;;9.88;4.45;;;9.40;99.90;;;;;;5073575;28;20227;-62
2021/12/17 10:28:20;;;;;;;5.60;4.38;;;9.40;99.90;;;;;;5073446;28;20232;-62
2021/12/17 10:30:49;;;;;;;7.45;4.47;;;9.40;99.90;;;;;;5072901;28;20225;-62
2021/12/17 10:33:19;;;;;;;11.00;5.03;;;9.40;99.90;;;;;;5072834;28;20224;-62
2021/12/17 10:35:48;;;;;;;10.50;4.85;;;9.40;99.90;;;;;;5073015;28;20303;-62
2021/12/17 10:38:17;;;;;;;8.80;4.13;;;9.40;99.90;;;;;;5073161;28;20228;-62
2021/12/17 10:40:50;;;;;;;8.15;4.85;;;9.40;99.90;;;;;;5072853;28;20226;-62
2021/12/17 10:43:23;;;;;;;11.75;5.45;;;9.40;99.90;;;;;;5073274;28;20273;-62
2021/12/17 10:46:00;;;;;;;16.33;5.30;;;9.40;99.90;;;;;;5073129;28;21308;-62
2021/12/17 10:48:33;;;;;;;16.90;6.25;;;9.50;99.90;;;;;;5072482;28;20240;-61
2021/12/17 10:51:17;;;;;;;12.82;6.45;;;9.50;99.90;;;;;;5072985;28;20235;-62
2021/12/17 10:53:51;;;;;;;9.73;5.93;;;9.50;99.90;;;;;;5072663;28;20227;-62
2021/12/17 10:56:19;;;;;;;11.93;5.13;;;9.50;99.90;;;;;;5073126;28;20686;-62
2021/12/17 10:59:02;;;;;;;10.80;5.72;;;9.60;99.90;;;;;;5072560;28;20232;-62
2021/12/17 11:01:32;;;;;;;7.55;4.40;;;9.60;99.90;;;;;;5072405;28;20577;-62
2021/12/17 11:04:22;;;;;;;8.18;4.65;;;9.60;99.90;;;;;;5072873;28;20278;-62
2021/12/17 11:06:52;;;;;;;12.50;5.47;;;9.60;99.90;;;;;;5069736;28;20231;-62
2021/12/17 11:09:40;;;;;;;12.43;5.35;;;9.60;99.90;;;;;;5072906;28;20236;-64
2021/12/17 11:12:29;;;;;;;11.45;4.57;;;9.60;99.90;;;;;;5073241;28;20224;-63
2021/12/17 11:15:07;;;;;;;7.82;4.35;;;9.70;99.90;;;;;;5072881;28;20677;-62
2021/12/17 11:17:35;;;;;;;6.70;4.40;;;9.70;99.90;;;;;;5072820;28;20583;-62
2021/12/17 11:20:06;;;;;;;12.57;5.45;;;9.60;99.90;;;;;;5072132;28;20227;-62
2021/12/17 11:22:33;;;;;;;9.02;4.45;;;9.70;99.90;;;;;;5072508;28;20231;-62
2021/12/17 11:25:01;;;;;;;8.90;3.70;;;9.70;99.90;;;;;;5072229;28;20228;-62
2021/12/17 11:27:29;;;;;;;12.48;5.30;;;9.70;99.90;;;;;;5072601;28;20220;-62
2021/12/17 11:29:56;;;;;;;4.93;4.25;;;9.70;99.90;;;;;;5072002;28;20314;-62
2021/12/17 11:32:24;;;;;;;11.43;4.00;;;9.70;99.90;;;;;;5072516;28;20220;-62
2021/12/17 11:34:50;;;;;;;6.75;4.05;;;9.70;99.90;;;;;;5072412;28;20246;-61
2021/12/17 11:37:19;;;;;;;8.40;4.38;;;9.70;99.90;;;;;;5072251;28;20216;-62
2021/12/17 11:39:52;;;;;;;8.38;3.50;;;9.70;99.90;;;;;;5072457;28;20314;-62
2021/12/17 11:42:47;;;;;;;7.60;3.42;;;9.70;99.90;;;;;;5072237;28;20220;-62
2021/12/17 11:45:26;;;;;;;6.03;3.67;;;9.70;99.90;;;;;;5071959;28;20231;-61
2021/12/17 11:47:57;;;;;;;10.68;3.67;;;9.80;99.90;;;;;;5071536;28;20273;-62
2021/12/17 11:50:24;;;;;;;11.02;4.57;;;9.80;99.90;;;;;;5071000;28;20224;-62
2021/12/17 11:52:53;;;;;;;10.20;4.82;;;9.70;99.90;;;;;;5061437;28;20238;-61
2021/12/17 11:55:28;;;;;;;8.48;4.18;;;9.70;99.90;;;;;;5052784;28;20235;-61
2021/12/17 11:57:59;;;;;;;7.65;4.55;;;9.70;99.90;;;;;;5071488;28;20268;-62
2021/12/17 12:00:30;;;;;;;9.18;4.90;;;9.70;99.90;;;;;;5071234;28;20914;-63
2021/12/17 12:03:15;;;;;;;8.77;4.13;;;9.70;99.90;;;;;;5055087;28;20221;-62
2021/12/17 12:05:43;;;;;;;8.98;3.70;;;9.80;99.90;;;;;;5052300;28;20677;-61
2021/12/17 12:08:31;;;;;;;8.55;4.00;;;9.80;99.90;;;;;;5052136;28;20278;-63
2021/12/17 12:11:12;;;;;;;7.85;5.45;;;9.80;99.90;;;;;;5051816;28;20244;-62
2021/12/17 12:13:42;;;;;;;6.50;3.05;;;9.80;99.90;;;;;;5052274;28;20559;-63
2021/12/17 12:16:11;;;;;;;11.10;5.10;;;9.80;99.90;;;;;;5051907;28;20995;-63
2021/12/17 12:18:51;;;;;;;8.63;4.30;;;9.90;99.90;;;;;;5052383;28;20655;-63
2021/12/17 12:21:19;;;;;;;10.95;4.72;;;9.90;99.90;;;;;;5051738;28;21027;-62
2021/12/17 12:23:53;;;;;;;6.90;4.85;;;9.90;99.90;;;;;;5052016;28;20240;-62
2021/12/17 12:26:23;;;;;;;7.75;4.68;;;9.90;99.90;;;;;;5051676;28;20334;-62
2021/12/17 12:28:58;;;;;;;8.50;4.28;;;9.90;99.90;;;;;;5052162;28;20218;-62
2021/12/17 12:31:47;;;;;;;4.80;3.80;;;9.90;99.90;;;;;;5051740;28;20224;-62
2021/12/17 12:34:16;;;;;;;10.40;3.80;;;9.90;99.90;;;;;;5051548;28;20539;-62
2021/12/17 12:36:55;;;;;;;9.65;4.75;;;9.80;99.90;;;;;;5052148;28;20227;-62
2021/12/17 12:39:25;;;;;;;10.38;4.53;;;9.80;99.90;;;;;;5051261;28;20224;-62
2021/12/17 12:42:00;;;;;;;8.15;4.78;;;9.80;99.90;;;;;;5052206;28;20304;-62
2021/12/17 12:45:05;;;;;;;11.98;4.45;;;9.80;99.90;;;;;;5051516;28;20666;-62
2021/12/17 12:47:45;;;;;;;9.00;3.90;;;9.80;99.90;;;;;;5062772;28;20246;-62
2021/12/17 12:50:14;;;;;;;10.02;4.97;;;9.80;99.90;;;;;;5057201;28;20228;-62
2021/12/17 12:52:45;;;;;;;7.85;3.65;;;9.80;99.90;;;;;;5071675;28;20358;-62
2021/12/17 12:55:19;;;;;;;7.43;5.15;;;9.90;99.90;;;;;;5070255;28;20224;-62
2021/12/17 12:57:48;;;;;;;9.27;4.80;;;9.90;99.90;;;;;;5074664;28;20242;-63
2021/12/17 13:00:20;;;;;;;9.10;5.78;;;9.90;99.90;;;;;;5074754;28;20232;-63
2021/12/17 13:02:51;;;;;;;8.63;4.85;;;10.00;99.90;;;;;;5075023;28;20320;-63
2021/12/17 13:05:19;;;;;;;11.60;5.85;;;10.00;99.90;;;;;;5074730;28;20220;-64
2021/12/17 13:07:48;;;;;;;9.80;6.00;;;10.00;99.90;;;;;;5075281;28;20554;-62
2021/12/17 13:10:19;;;;;;;8.85;5.20;;;10.00;99.90;;;;;;5074492;28;20228;-62
2021/12/17 13:12:53;;;;;;;9.73;5.07;;;10.00;99.90;;;;;;5074870;28;20228;-61
2021/12/17 13:15:38;;;;;;;8.05;5.05;;;10.00;99.90;;;;;;5074727;28;20219;-63
2021/12/17 13:21:16;;;;;;;7.00;3.90;;;10.00;99.90;;;;;;5070958;28;20247;-63
2021/12/17 13:23:50;;;;;;;11.38;4.72;;;10.10;99.90;;;;;;5074588;28;20228;-63
2021/12/17 13:26:19;;;;;;;7.75;5.45;;;10.10;99.90;;;;;;5074616;28;20669;-63
2021/12/17 13:28:48;;;;;;;9.70;5.95;;;10.10;99.90;;;;;;5074609;28;20267;-64
2021/12/17 13:31:30;;;;;;;10.45;5.80;;;10.10;99.90;;;;;;5074167;28;20316;-64
2021/12/17 13:33:58;;;;;;;16.33;5.35;;;10.10;99.90;;;;;;5074159;28;20234;-63
2021/12/17 13:36:26;;;;;;;8.93;6.28;;;10.10;99.90;;;;;;5074741;28;20231;-63
2021/12/17 13:38:57;;;;;;;6.82;6.13;;;10.10;99.90;;;;;;5074308;28;20691;-63
2021/12/17 13:41:35;;;;;;;9.80;6.88;;;10.10;99.90;;;;;;5055535;28;20232;-63
2021/12/17 13:44:02;;;;;;;12.70;7.25;;;10.10;99.90;;;;;;5062039;28;20701;-63
2021/12/17 13:46:29;;;;;;;11.82;7.30;;;10.10;99.90;;;;;;5074281;28;20220;-63
2021/12/17 13:48:57;;;;;;;10.90;6.28;;;10.10;99.90;;;;;;5072899;28;20220;-63
2021/12/17 13:51:24;;;;;;;24.00;16.90;;;10.10;99.90;;;;;;5073441;28;20235;-63
2021/12/17 13:53:52;;;;;;;37.78;25.27;;;10.10;99.90;;;;;;5073987;28;20573;-63
2021/12/17 13:56:19;;;;;;;29.20;20.95;;;10.10;99.90;;;;;;5073592;28;20263;-62
2021/12/17 13:58:46;;;;;;;21.27;12.93;;;10.10;99.90;;;;;;5063459;28;20227;-62
2021/12/17 14:01:21;;;;;;;15.98;10.88;;;10.10;99.90;;;;;;5073325;28;20327;-62
2021/12/17 14:03:48;;;;;;;9.95;7.13;;;10.20;99.90;;;;;;5073968;28;20237;-62
2021/12/17 14:06:22;;;;;;;13.38;7.40;;;10.20;99.90;;;;;;5073506;28;20231;-63
2021/12/17 14:08:51;;;;;;;10.02;6.97;;;10.10;99.90;;;;;;5073809;28;20218;-64
2021/12/17 14:11:22;;;;;;;11.30;7.47;;;10.10;99.90;;;;;;5073163;28;20232;-63
2021/12/17 14:13:49;;;;;;;16.65;12.15;;;10.10;99.90;;;;;;5070106;28;20243;-63
2021/12/17 14:16:28;;;;;;;16.98;8.05;;;10.00;99.90;;;;;;5072866;28;20220;-63
2021/12/17 14:19:07;;;;;;;23.88;12.25;;;10.00;99.90;;;;;;5073728;28;20407;-63
2021/12/17 14:21:36;;;;;;;15.48;11.05;;;10.00;99.90;;;;;;5073484;28;20224;-63
2021/12/17 14:24:03;;;;;;;18.20;10.35;;;10.00;99.90;;;;;;5073243;28;20669;-63
2021/12/17 14:26:32;;;;;;;14.38;10.32;;;10.00;99.90;;;;;;5073084;28;20232;-62
2021/12/17 14:29:09;;;;;;;29.05;21.63;;;10.00;99.90;;;;;;5073264;28;20744;-63
2021/12/17 14:31:36;;;;;;;28.42;21.25;;;10.00;99.90;;;;;;5073178;28;20677;-62
2021/12/17 14:34:03;;;;;;;19.27;12.65;;;10.00;99.90;;;;;;5073292;28;20252;-63
2021/12/17 14:36:36;;;;;;;17.13;9.43;;;10.00;99.90;;;;;;5073084;28;20311;-62
2021/12/17 14:39:08;;;;;;;12.35;9.10;;;10.00;99.90;;;;;;5060228;28;20234;-63
2021/12/17 14:41:47;;;;;;;14.38;6.47;;;10.00;99.90;;;;;;5061778;28;20294;-62
2021/12/17 14:44:30;;;;;;;7.63;6.57;;;10.00;99.90;;;;;;5071964;28;20315;-63
2021/12/17 14:47:04;;;;;;;15.57;10.10;;;10.00;99.90;;;;;;5073034;28;20227;-62
2021/12/17 15:01:10;;;;;;;16.85;9.73;;;9.90;99.90;;;;;;5060903;28;20216;-64
2021/12/17 15:03:41;;;;;;;17.05;10.45;;;9.90;99.90;;;;;;5072775;28;20299;-63
2021/12/17 15:06:09;;;;;;;11.80;7.95;;;9.90;99.90;;;;;;5072663;28;20220;-65
2021/12/17 15:08:36;;;;;;;12.55;6.70;;;9.90;99.90;;;;;;5072528;28;20303;-64
2021/12/17 15:11:13;;;;;;;6.80;5.03;;;9.90;99.90;;;;;;5072062;28;20227;-63
2021/12/17 15:13:40;;;;;;;9.52;4.93;;;9.90;99.90;;;;;;5060345;28;20713;-64
2021/12/17 15:16:07;;;;;;;8.30;4.95;;;9.90;99.90;;;;;;5071978;28;20230;-63
2021/12/17 15:18:34;;;;;;;15.40;8.63;;;9.90;99.90;;;;;;5072473;28;20224;-63